Time;durP1;ratioP1;P1;durP2;ratioP2;P2;SDS_P1;SDS_P2;PMS_P1;PMS_P2;Temp;Humidity;BMP_temperature;BMP_pressure;BME280_temperature;BME280_humidity;BME280_pressure;Samples;Min_cycle;Max_cycle;Signal;HPM_P1;HPM_P2
2023/05/25 00:01:58;;;;;;;10.53;3.97;;;11.30;99.90;;;;;;5073601;28;20211;-77
2023/05/25 00:04:29;;;;;;;9.10;3.80;;;11.30;99.90;;;;;;5073778;28;20299;-76
2023/05/25 00:06:57;;;;;;;10.77;4.53;;;11.30;99.90;;;;;;5073727;28;20207;-78
2023/05/25 00:09:25;;;;;;;10.77;4.37;;;11.20;99.90;;;;;;5074067;28;20211;-79
2023/05/25 00:11:53;;;;;;;10.73;4.80;;;11.30;99.90;;;;;;5073795;28;20212;-77
2023/05/25 00:14:23;;;;;;;10.63;4.57;;;11.30;99.90;;;;;;5073644;28;20224;-79
2023/05/25 00:16:51;;;;;;;13.67;4.53;;;11.30;99.90;;;;;;5073593;28;20203;-77
2023/05/25 00:19:22;;;;;;;10.03;4.37;;;11.30;99.90;;;;;;5081840;28;20203;-77
2023/05/25 00:21:51;;;;;;;11.20;4.50;;;11.20;99.90;;;;;;5093826;28;20625;-76
2023/05/25 00:24:19;;;;;;;10.47;4.47;;;11.20;99.90;;;;;;5093818;28;20595;-77
2023/05/25 00:26:47;;;;;;;10.23;4.30;;;11.20;99.90;;;;;;5093912;28;20215;-78
2023/05/25 00:29:15;;;;;;;13.23;4.60;;;11.20;99.90;;;;;;5093526;28;20219;-79
2023/05/25 00:31:43;;;;;;;9.60;4.00;;;11.20;99.90;;;;;;5075201;28;20219;-78
2023/05/25 00:34:12;;;;;;;8.80;4.17;;;11.20;99.90;;;;;;5073221;28;20262;-76
2023/05/25 00:36:42;;;;;;;10.13;4.83;;;11.20;99.90;;;;;;5073220;28;20222;-78
2023/05/25 00:39:10;;;;;;;13.37;4.73;;;11.20;99.90;;;;;;5073552;28;20203;-79
2023/05/25 00:41:40;;;;;;;11.10;4.90;;;11.20;99.90;;;;;;5073205;28;20212;-78
2023/05/25 00:44:08;;;;;;;10.97;4.20;;;11.20;99.90;;;;;;5072910;28;20256;-78
2023/05/25 00:46:37;;;;;;;9.30;4.33;;;11.20;99.90;;;;;;5073061;28;20211;-77
2023/05/25 00:49:06;;;;;;;11.33;4.50;;;11.20;99.90;;;;;;5086904;28;20211;-77
2023/05/25 00:51:35;;;;;;;8.97;4.60;;;11.20;99.90;;;;;;5092937;28;20230;-76
2023/05/25 00:54:05;;;;;;;9.63;4.50;;;11.20;99.90;;;;;;5091424;28;20207;-76
2023/05/25 00:56:43;;;;;;;9.20;4.60;;;11.20;99.90;;;;;;5091325;28;20207;-76
2023/05/25 00:59:24;;;;;;;10.27;4.47;;;11.20;99.90;;;;;;5092750;28;20214;-77
2023/05/25 01:01:54;;;;;;;9.57;4.50;;;11.20;99.90;;;;;;5092949;28;20244;-77
2023/05/25 01:04:23;;;;;;;8.73;4.70;;;11.20;99.90;;;;;;5092950;28;20206;-76
2023/05/25 01:06:53;;;;;;;11.50;4.63;;;11.20;99.90;;;;;;5092419;28;20242;-77
2023/05/25 01:09:23;;;;;;;10.03;4.73;;;11.20;99.90;;;;;;5092881;28;20207;-78
2023/05/25 01:11:52;;;;;;;8.63;4.60;;;11.20;99.90;;;;;;5092478;28;20206;-77
2023/05/25 01:14:21;;;;;;;10.80;4.90;;;11.30;99.90;;;;;;5092739;28;20265;-78
2023/05/25 01:16:50;;;;;;;11.07;5.13;;;11.30;99.90;;;;;;5092420;28;20251;-78
2023/05/25 01:19:18;;;;;;;9.40;5.03;;;11.30;99.90;;;;;;5112254;28;20202;-78
2023/05/25 01:21:53;;;;;;;13.10;5.63;;;11.30;99.90;;;;;;5103352;28;20309;-77
2023/05/25 01:24:31;;;;;;;9.43;5.70;;;11.30;99.90;;;;;;5092327;28;20734;-79
2023/05/25 01:27:05;;;;;;;8.90;5.40;;;11.30;99.90;;;;;;5097138;28;20209;-78
2023/05/25 01:29:34;;;;;;;9.73;5.97;;;11.30;99.90;;;;;;5113098;28;20194;-76
2023/05/25 01:32:04;;;;;;;9.97;5.70;;;11.40;99.90;;;;;;5112665;28;20247;-77
2023/05/25 01:34:34;;;;;;;13.10;6.30;;;11.40;99.90;;;;;;5112706;28;20264;-78
2023/05/25 01:37:04;;;;;;;13.80;7.10;;;11.40;99.90;;;;;;5112122;28;20220;-77
2023/05/25 01:39:32;;;;;;;13.23;7.23;;;11.40;99.90;;;;;;5112323;28;20664;-77
2023/05/25 01:42:01;;;;;;;14.60;8.10;;;11.40;99.90;;;;;;5112478;28;20263;-79
2023/05/25 01:44:29;;;;;;;16.10;9.00;;;11.50;99.90;;;;;;5112431;28;20210;-79
2023/05/25 01:47:03;;;;;;;12.73;8.60;;;11.50;99.90;;;;;;5096490;28;20610;-78
2023/05/25 01:49:42;;;;;;;14.30;8.83;;;11.50;99.90;;;;;;5092135;28;20214;-76
2023/05/25 01:52:19;;;;;;;14.03;9.60;;;11.60;99.90;;;;;;5075153;28;20252;-78
2023/05/25 01:54:52;;;;;;;16.37;9.37;;;11.60;99.90;;;;;;5100386;28;20249;-79
2023/05/25 01:57:22;;;;;;;14.43;9.67;;;11.60;99.90;;;;;;5113694;28;20255;-77
2023/05/25 01:59:52;;;;;;;14.07;10.70;;;11.70;99.90;;;;;;5113594;28;20632;-78
2023/05/25 02:02:20;;;;;;;15.23;11.70;;;11.60;99.90;;;;;;5108447;28;20214;-77
2023/05/25 02:04:49;;;;;;;15.80;11.73;;;11.70;99.90;;;;;;5091972;28;20692;-78
2023/05/25 02:07:19;;;;;;;14.87;12.23;;;11.70;99.90;;;;;;5092175;28;20214;-79
2023/05/25 02:09:47;;;;;;;16.33;12.27;;;11.70;99.90;;;;;;5091676;28;20211;-78
2023/05/25 02:12:15;;;;;;;14.57;12.40;;;11.80;99.90;;;;;;5091553;28;20207;-77
2023/05/25 02:14:44;;;;;;;14.30;12.43;;;11.80;99.90;;;;;;5091503;28;20203;-77
2023/05/25 02:17:12;;;;;;;16.13;13.07;;;11.80;99.90;;;;;;5105229;28;20210;-77
2023/05/25 02:19:40;;;;;;;16.80;12.37;;;11.80;99.90;;;;;;5111984;28;20222;-77
2023/05/25 02:22:08;;;;;;;17.47;12.90;;;11.80;99.90;;;;;;5111838;28;20860;-78
2023/05/25 02:24:38;;;;;;;16.30;12.37;;;11.70;99.90;;;;;;5115875;28;20279;-76
2023/05/25 02:27:06;;;;;;;17.00;12.50;;;11.70;99.90;;;;;;5123931;27;20709;-77
2023/05/25 02:29:34;;;;;;;17.67;12.17;;;11.70;99.90;;;;;;5121087;27;20231;-76
2023/05/25 02:32:03;;;;;;;17.37;12.90;;;11.70;99.90;;;;;;5096483;28;20217;-78
2023/05/25 02:34:31;;;;;;;16.57;11.93;;;11.70;99.90;;;;;;5095754;28;20581;-78
2023/05/25 02:36:59;;;;;;;14.07;11.50;;;11.70;99.90;;;;;;5095615;28;20234;-78
2023/05/25 02:39:27;;;;;;;15.17;12.23;;;11.70;99.90;;;;;;5095744;28;20594;-76
2023/05/25 02:41:57;;;;;;;14.27;11.87;;;11.70;99.90;;;;;;5095513;28;20221;-78
2023/05/25 02:44:25;;;;;;;18.73;12.20;;;11.70;99.90;;;;;;5095653;28;20213;-77
2023/05/25 02:46:53;;;;;;;15.30;11.43;;;11.70;99.90;;;;;;5095217;28;20252;-77
2023/05/25 02:49:21;;;;;;;14.97;11.70;;;11.70;99.90;;;;;;5095118;28;20210;-76
2023/05/25 02:51:49;;;;;;;14.77;11.30;;;11.70;99.90;;;;;;5095337;28;20263;-79
2023/05/25 02:54:17;;;;;;;15.70;11.20;;;11.70;99.90;;;;;;5095517;28;20276;-77
2023/05/25 02:56:45;;;;;;;14.80;11.77;;;11.70;99.90;;;;;;5094861;28;20249;-78
2023/05/25 02:59:15;;;;;;;18.77;12.27;;;11.70;99.90;;;;;;5095158;28;20210;-77
2023/05/25 03:01:43;;;;;;;15.60;11.20;;;11.70;99.90;;;;;;5094965;28;20209;-77
2023/05/25 03:04:11;;;;;;;15.90;12.03;;;11.70;99.90;;;;;;5095362;28;20289;-78
2023/05/25 03:06:39;;;;;;;15.20;11.67;;;11.70;99.90;;;;;;5102626;27;20308;-78
2023/05/25 03:09:08;;;;;;;18.27;11.63;;;11.80;99.90;;;;;;5116554;27;20198;-79
2023/05/25 03:11:36;;;;;;;13.70;10.80;;;11.70;99.90;;;;;;5119988;27;20234;-79
2023/05/25 03:14:04;;;;;;;15.47;10.57;;;11.80;99.90;;;;;;5119644;27;20222;-76
2023/05/25 03:16:35;;;;;;;14.70;10.73;;;11.80;99.90;;;;;;5120234;27;20278;-77
2023/05/25 03:19:04;;;;;;;14.23;10.67;;;11.80;99.90;;;;;;5114384;28;20214;-78
2023/05/25 03:21:33;;;;;;;16.67;10.70;;;11.80;99.90;;;;;;5114305;28;20742;-76
2023/05/25 03:24:01;;;;;;;15.33;10.40;;;11.80;99.90;;;;;;5112131;28;20222;-77
2023/05/25 03:26:29;;;;;;;13.73;10.23;;;11.80;99.90;;;;;;5114792;28;20603;-76
2023/05/25 03:28:57;;;;;;;13.93;9.67;;;11.80;99.90;;;;;;5111715;28;20208;-79
2023/05/25 03:31:25;;;;;;;14.50;10.53;;;11.80;99.90;;;;;;5109933;28;20234;-77
2023/05/25 03:33:55;;;;;;;16.40;10.43;;;11.80;99.90;;;;;;5113845;28;20210;-77
2023/05/25 03:36:26;;;;;;;12.90;9.73;;;11.80;99.90;;;;;;5113432;28;20374;-78
2023/05/25 03:38:54;;;;;;;12.57;9.60;;;11.70;99.90;;;;;;5113195;28;20285;-77
2023/05/25 03:41:22;;;;;;;15.30;9.80;;;11.80;99.90;;;;;;5114802;28;20233;-77
2023/05/25 03:43:51;;;;;;;15.40;9.87;;;11.80;99.90;;;;;;5114979;28;20251;-77
2023/05/25 03:46:19;;;;;;;11.40;9.47;;;11.80;99.90;;;;;;5115804;28;20194;-79
2023/05/25 03:48:51;;;;;;;13.23;9.67;;;11.80;99.90;;;;;;5102416;27;20222;-76
2023/05/25 03:51:20;;;;;;;12.53;9.63;;;11.80;99.90;;;;;;5094748;28;20672;-77
2023/05/25 03:53:48;;;;;;;11.97;8.87;;;11.80;99.90;;;;;;5094556;28;20558;-79
2023/05/25 03:56:16;;;;;;;13.07;9.17;;;11.80;99.90;;;;;;5094506;28;20306;-75
2023/05/25 03:58:44;;;;;;;13.30;9.33;;;11.80;99.90;;;;;;5094436;28;20646;-78
2023/05/25 04:01:13;;;;;;;11.63;8.97;;;11.80;99.90;;;;;;5095146;28;20249;-77
2023/05/25 04:03:41;;;;;;;15.13;8.83;;;11.80;99.90;;;;;;5095747;28;20215;-78
2023/05/25 04:06:10;;;;;;;12.23;9.00;;;11.80;99.90;;;;;;5096035;28;20206;-76
2023/05/25 04:08:40;;;;;;;12.70;9.17;;;11.80;99.90;;;;;;5096715;28;20207;-77
2023/05/25 04:11:08;;;;;;;12.87;8.93;;;11.80;99.90;;;;;;5095662;28;20700;-78
2023/05/25 04:13:39;;;;;;;14.23;9.07;;;11.70;99.90;;;;;;5102709;28;20664;-77
2023/05/25 04:16:08;;;;;;;17.43;9.47;;;11.80;99.90;;;;;;5112583;28;20259;-77
2023/05/25 04:18:37;;;;;;;15.13;8.70;;;11.70;99.90;;;;;;5113193;28;20301;-78
2023/05/25 04:21:05;;;;;;;12.17;8.50;;;11.70;99.90;;;;;;5113664;28;20261;-79
2023/05/25 04:23:33;;;;;;;11.67;8.87;;;11.70;99.90;;;;;;5098612;28;20210;-78
2023/05/25 04:26:04;;;;;;;12.43;8.60;;;11.70;99.90;;;;;;5093168;28;20345;-76
2023/05/25 04:28:33;;;;;;;13.53;8.73;;;11.70;99.90;;;;;;5092668;28;20207;-76
2023/05/25 04:31:01;;;;;;;14.47;8.83;;;11.80;99.90;;;;;;5093629;28;20234;-76
2023/05/25 04:33:29;;;;;;;12.77;8.63;;;11.80;99.90;;;;;;5093470;28;20214;-77
2023/05/25 04:35:58;;;;;;;12.93;8.70;;;11.80;99.90;;;;;;5093920;28;20305;-77
2023/05/25 04:38:26;;;;;;;16.57;8.43;;;11.90;99.90;;;;;;5093719;28;20298;-76
2023/05/25 04:40:55;;;;;;;12.17;7.83;;;11.90;99.90;;;;;;5094586;28;20302;-76
2023/05/25 04:43:26;;;;;;;11.77;8.17;;;12.00;99.90;;;;;;5093439;28;20211;-79
2023/05/25 04:45:54;;;;;;;12.00;7.70;;;12.10;99.90;;;;;;5093908;28;20246;-76
2023/05/25 04:48:23;;;;;;;17.90;8.27;;;12.20;99.90;;;;;;5093519;28;20510;-76
2023/05/25 04:50:54;;;;;;;15.97;8.00;;;12.20;99.90;;;;;;5093912;28;20206;-78
2023/05/25 04:53:22;;;;;;;12.57;7.97;;;12.30;99.90;;;;;;5093015;28;20726;-77
2023/05/25 04:55:50;;;;;;;13.70;7.73;;;12.40;99.90;;;;;;5093468;28;20325;-77
2023/05/25 04:58:18;;;;;;;12.13;7.30;;;12.40;99.90;;;;;;5093034;28;20274;-76
2023/05/25 05:00:48;;;;;;;12.23;7.00;;;12.50;99.90;;;;;;5092800;28;20219;-76
2023/05/25 05:03:19;;;;;;;16.07;7.60;;;12.50;99.90;;;;;;5093094;28;20280;-77
2023/05/25 05:05:47;;;;;;;13.60;6.80;;;12.60;99.90;;;;;;5093050;28;20268;-76
2023/05/25 05:08:15;;;;;;;12.27;6.83;;;12.70;99.90;;;;;;5092965;28;20211;-76
2023/05/25 05:10:44;;;;;;;13.53;6.53;;;12.80;99.90;;;;;;5092982;28;20263;-77
2023/05/25 05:13:12;;;;;;;10.37;6.73;;;12.80;99.90;;;;;;5108458;28;20225;-77
2023/05/25 05:15:40;;;;;;;11.17;6.37;;;12.80;99.90;;;;;;5110545;28;20258;-77
2023/05/25 05:18:11;;;;;;;11.57;6.80;;;12.80;99.90;;;;;;5092741;28;20601;-77
2023/05/25 05:20:40;;;;;;;13.60;5.97;;;12.70;99.90;;;;;;5093040;28;20276;-78
2023/05/25 05:23:08;;;;;;;11.53;6.20;;;12.70;99.90;;;;;;5093675;28;20230;-76
2023/05/25 05:25:36;;;;;;;10.40;5.93;;;12.80;99.90;;;;;;5093341;28;20245;-76
2023/05/25 05:28:04;;;;;;;10.37;6.00;;;12.80;99.90;;;;;;5092592;28;20207;-76
2023/05/25 05:30:33;;;;;;;12.27;6.20;;;12.80;99.90;;;;;;5093462;28;20268;-77
2023/05/25 05:33:02;;;;;;;10.33;5.63;;;12.90;99.90;;;;;;5109078;28;20213;-78
2023/05/25 05:35:32;;;;;;;9.90;5.60;;;13.00;99.90;;;;;;5112539;28;20213;-77
2023/05/25 05:38:00;;;;;;;13.77;5.93;;;13.10;99.90;;;;;;5112636;28;20275;-77
2023/05/25 05:40:29;;;;;;;13.47;6.03;;;13.10;99.90;;;;;;5112874;28;20209;-76
2023/05/25 05:42:57;;;;;;;9.80;5.93;;;13.10;99.90;;;;;;5112205;28;20233;-79
2023/05/25 05:45:25;;;;;;;11.97;5.77;;;13.10;99.90;;;;;;5113045;28;20236;-77
2023/05/25 05:47:53;;;;;;;15.77;6.50;;;13.00;99.90;;;;;;5112542;28;20202;-79
2023/05/25 05:50:21;;;;;;;12.20;5.77;;;13.00;99.90;;;;;;5112729;28;20206;-76
2023/05/25 05:52:52;;;;;;;12.13;5.90;;;13.00;99.90;;;;;;5111165;28;20234;-78
2023/05/25 05:55:20;;;;;;;12.37;5.40;;;13.00;99.90;;;;;;5112162;28;20248;-78
2023/05/25 05:57:48;;;;;;;12.60;5.80;;;13.00;99.90;;;;;;5111925;28;20229;-79
2023/05/25 06:00:18;;;;;;;11.80;5.73;;;13.00;99.90;;;;;;5107921;28;20509;-75
2023/05/25 06:02:46;;;;;;;11.30;5.80;;;13.10;99.90;;;;;;5110292;28;20293;-77
2023/05/25 06:05:15;;;;;;;12.23;5.67;;;13.10;99.90;;;;;;5112500;28;20283;-77
2023/05/25 06:07:43;;;;;;;11.73;5.90;;;13.10;99.90;;;;;;5112133;28;20212;-76
2023/05/25 06:10:13;;;;;;;12.77;5.70;;;13.10;99.90;;;;;;5108348;28;20664;-76
2023/05/25 06:12:41;;;;;;;13.50;5.70;;;13.10;99.90;;;;;;5110661;28;20210;-77
2023/05/25 06:15:10;;;;;;;12.52;6.20;;;13.10;99.90;;;;;;5110064;28;20447;-77
2023/05/25 06:17:38;;;;;;;9.43;5.80;;;12.90;99.90;;;;;;5112288;28;20233;-77
2023/05/25 06:20:07;;;;;;;14.37;6.10;;;12.90;99.90;;;;;;5111926;28;20220;-76
2023/05/25 06:22:36;;;;;;;14.93;6.80;;;12.90;99.90;;;;;;5091345;28;20574;-77
2023/05/25 06:25:05;;;;;;;13.23;5.50;;;13.00;99.90;;;;;;5091384;28;20207;-76
2023/05/25 06:27:34;;;;;;;13.40;6.10;;;13.00;99.90;;;;;;5091554;28;20229;-79
2023/05/25 06:30:02;;;;;;;12.03;6.20;;;13.20;99.90;;;;;;5091345;28;20818;-78
2023/05/25 06:32:31;;;;;;;14.27;5.83;;;13.20;99.90;;;;;;5091063;28;20206;-75
2023/05/25 06:34:59;;;;;;;9.97;5.70;;;13.30;99.90;;;;;;5091499;28;20242;-77
2023/05/25 06:37:33;;;;;;;13.37;5.90;;;13.30;99.90;;;;;;5091162;28;20233;-77
2023/05/25 06:40:02;;;;;;;13.13;6.23;;;13.40;99.90;;;;;;5091785;28;20273;-78
2023/05/25 06:42:30;;;;;;;15.07;6.67;;;13.40;99.90;;;;;;5091682;28;20206;-78
2023/05/25 06:44:59;;;;;;;10.57;6.27;;;13.50;99.90;;;;;;5091743;28;20257;-77
2023/05/25 06:47:27;;;;;;;12.53;6.07;;;13.50;99.90;;;;;;5093701;28;20253;-77
2023/05/25 06:49:58;;;;;;;11.13;6.10;;;13.60;99.90;;;;;;5093089;28;20229;-75
2023/05/25 06:52:27;;;;;;;12.87;6.30;;;13.70;99.90;;;;;;5094209;28;20321;-76
2023/05/25 06:54:55;;;;;;;13.97;6.70;;;13.80;99.90;;;;;;5092429;28;20381;-80
2023/05/25 06:57:23;;;;;;;11.17;6.37;;;13.80;99.90;;;;;;5092058;28;20214;-78
2023/05/25 06:59:52;;;;;;;16.17;7.43;;;13.80;99.90;;;;;;5093441;28;20238;-78
2023/05/25 07:02:21;;;;;;;16.63;7.03;;;13.60;99.90;;;;;;5096043;28;20680;-76
2023/05/25 07:04:50;;;;;;;16.37;7.13;;;13.60;99.90;;;;;;5093230;28;20214;-78
2023/05/25 07:07:18;;;;;;;13.87;6.80;;;13.80;99.90;;;;;;5091473;28;20207;-79
2023/05/25 07:09:46;;;;;;;9.93;6.67;;;14.10;99.90;;;;;;5104130;28;20382;-76
2023/05/25 07:12:15;;;;;;;11.40;6.67;;;14.30;99.90;;;;;;5100068;28;20294;-79
2023/05/25 07:14:46;;;;;;;13.27;6.73;;;14.30;99.90;;;;;;5095358;28;20252;-77
2023/05/25 07:17:14;;;;;;;12.07;6.70;;;14.40;99.90;;;;;;5095018;28;20225;-78
2023/05/25 07:19:44;;;;;;;11.60;6.50;;;14.60;99.90;;;;;;5095373;28;20203;-77
2023/05/25 07:22:12;;;;;;;10.50;6.40;;;14.80;99.90;;;;;;5094542;28;20557;-78
2023/05/25 07:24:40;;;;;;;10.77;6.97;;;15.00;99.90;;;;;;5094941;28;20211;-76
2023/05/25 07:27:08;;;;;;;8.90;6.33;;;15.10;99.90;;;;;;5094894;28;20227;-79
2023/05/25 07:29:38;;;;;;;11.63;6.87;;;14.90;99.90;;;;;;5095970;28;20260;-76
2023/05/25 07:32:07;;;;;;;12.33;6.57;;;14.90;99.90;;;;;;5094757;28;20210;-79
2023/05/25 07:34:35;;;;;;;12.97;6.80;;;15.20;99.90;;;;;;5094859;28;20211;-80
2023/05/25 07:37:05;;;;;;;11.37;6.53;;;15.50;99.90;;;;;;5094504;28;20218;-77
2023/05/25 07:39:34;;;;;;;13.57;6.83;;;15.60;99.90;;;;;;5094716;28;20244;-76
2023/05/25 07:42:02;;;;;;;13.03;6.70;;;15.60;99.90;;;;;;5093940;28;20668;-78
2023/05/25 07:44:30;;;;;;;11.77;6.50;;;15.60;99.90;;;;;;5094813;28;20246;-78
2023/05/25 07:46:58;;;;;;;10.87;6.77;;;15.60;99.90;;;;;;5094626;28;20647;-79
2023/05/25 07:49:26;;;;;;;14.90;7.23;;;15.50;99.90;;;;;;5094602;28;20230;-77
2023/05/25 07:51:54;;;;;;;11.57;7.17;;;15.20;99.90;;;;;;5094476;28;20206;-80
2023/05/25 07:54:24;;;;;;;13.70;7.70;;;15.10;99.90;;;;;;5094417;28;20280;-78
2023/05/25 07:56:52;;;;;;;9.30;7.23;;;14.90;99.90;;;;;;5094183;28;20289;-77
2023/05/25 07:59:20;;;;;;;12.90;7.77;;;14.90;99.90;;;;;;5094752;28;20661;-75
2023/05/25 08:01:48;;;;;;;13.30;7.10;;;14.80;99.90;;;;;;5094280;28;20206;-77
2023/05/25 08:04:16;;;;;;;15.77;8.40;;;15.00;99.90;;;;;;5111483;28;20198;-79
2023/05/25 08:06:48;;;;;;;11.67;7.60;;;14.90;99.90;;;;;;5112513;28;20251;-77
2023/05/25 08:09:16;;;;;;;11.83;8.00;;;15.00;99.90;;;;;;5112141;28;20202;-76
2023/05/25 08:11:46;;;;;;;13.33;7.63;;;14.90;99.90;;;;;;5114294;28;20576;-77
2023/05/25 08:14:14;;;;;;;10.93;7.57;;;14.90;99.90;;;;;;5114575;28;20616;-76
2023/05/25 08:16:44;;;;;;;10.43;6.60;;;15.00;99.90;;;;;;5097393;28;20203;-75
2023/05/25 08:19:12;;;;;;;11.17;7.63;;;15.20;99.90;;;;;;5094483;28;20222;-75
2023/05/25 08:21:40;;;;;;;11.00;7.90;;;15.10;99.90;;;;;;5114292;28;20214;-76
2023/05/25 08:24:09;;;;;;;14.73;8.00;;;15.20;99.90;;;;;;5108143;28;20207;-74
2023/05/25 08:26:39;;;;;;;9.90;7.47;;;15.10;99.90;;;;;;5094151;28;20231;-77
2023/05/25 08:29:22;;;;;;;9.73;6.57;;;14.80;99.90;;;;;;5094093;28;20240;-76
2023/05/25 08:31:51;;;;;;;11.70;7.73;;;15.00;99.90;;;;;;5093894;28;20214;-78
2023/05/25 08:34:19;;;;;;;12.30;7.43;;;15.10;99.90;;;;;;5094026;28;20229;-79
2023/05/25 08:36:49;;;;;;;12.60;7.87;;;15.30;99.90;;;;;;5105417;28;20214;-79
2023/05/25 08:39:18;;;;;;;11.83;6.90;;;15.10;99.90;;;;;;5114220;28;20609;-77
2023/05/25 08:41:46;;;;;;;8.80;6.87;;;15.10;99.90;;;;;;5105391;28;20215;-78
2023/05/25 08:44:14;;;;;;;8.40;6.43;;;15.10;99.90;;;;;;5093338;28;20290;-80
2023/05/25 08:46:48;;;;;;;8.50;6.20;;;15.10;99.90;;;;;;5093198;28;20202;-78
2023/05/25 08:49:16;;;;;;;7.57;6.20;;;14.90;99.90;;;;;;5092967;28;20211;-77
2023/05/25 08:51:49;;;;;;;8.77;6.80;;;15.20;99.90;;;;;;5093149;28;20215;-76
2023/05/25 08:54:19;;;;;;;9.47;5.90;;;15.40;99.90;;;;;;5093307;28;20240;-77
2023/05/25 08:56:51;;;;;;;8.27;6.30;;;15.70;99.90;;;;;;5093218;28;20342;-78
2023/05/25 08:59:30;;;;;;;7.43;6.50;;;15.80;99.90;;;;;;5093073;28;20223;-76
2023/05/25 09:02:08;;;;;;;9.47;7.10;;;15.80;99.90;;;;;;5090727;28;20249;-78
2023/05/25 09:04:37;;;;;;;8.10;6.50;;;15.80;99.90;;;;;;5092688;28;20220;-76
2023/05/25 09:07:06;;;;;;;10.60;7.20;;;15.50;99.90;;;;;;5102272;28;20238;-81
2023/05/25 09:09:38;;;;;;;9.40;7.70;;;15.50;99.90;;;;;;5093320;28;20222;-80
2023/05/25 09:12:08;;;;;;;9.47;7.03;;;15.50;99.90;;;;;;5092491;28;20751;-77
2023/05/25 09:14:38;;;;;;;10.37;7.43;;;15.30;99.90;;;;;;5093040;28;20582;-79
2023/05/25 09:17:08;;;;;;;9.80;7.60;;;15.40;99.90;;;;;;5092295;28;20210;-80
2023/05/25 09:19:36;;;;;;;10.07;7.50;;;15.30;99.90;;;;;;5092747;28;20234;-77
2023/05/25 09:22:04;;;;;;;9.17;7.43;;;15.30;99.90;;;;;;5092752;28;20355;-78
2023/05/25 09:24:43;;;;;;;10.20;7.80;;;15.50;99.90;;;;;;5092456;28;20195;-79
2023/05/25 09:27:17;;;;;;;10.37;7.70;;;15.60;99.90;;;;;;5092410;28;20226;-77
2023/05/25 09:29:47;;;;;;;10.23;7.00;;;15.60;99.90;;;;;;5092809;28;20199;-79
2023/05/25 09:32:18;;;;;;;9.07;7.47;;;15.80;99.90;;;;;;5091863;28;20261;-78
2023/05/25 09:34:47;;;;;;;12.17;8.00;;;15.60;99.90;;;;;;5092641;28;20191;-77
2023/05/25 09:37:17;;;;;;;10.20;7.47;;;15.80;99.90;;;;;;5106029;28;20218;-78
2023/05/25 09:39:47;;;;;;;9.43;7.20;;;15.80;99.90;;;;;;5112981;28;20232;-77
2023/05/25 09:42:15;;;;;;;12.27;7.33;;;15.90;99.90;;;;;;5112831;28;20666;-79
2023/05/25 09:44:44;;;;;;;11.63;6.47;;;16.30;99.90;;;;;;5112805;28;20577;-79
2023/05/25 09:47:15;;;;;;;8.87;6.70;;;16.70;99.90;;;;;;5112816;28;20220;-77
2023/05/25 09:49:48;;;;;;;7.93;6.20;;;16.90;99.90;;;;;;5112982;28;20198;-78
2023/05/25 09:52:16;;;;;;;9.00;6.20;;;17.40;99.90;;;;;;5110139;28;20199;-78
2023/05/25 09:54:45;;;;;;;9.73;6.90;;;17.50;99.90;;;;;;5110685;28;20202;-78
2023/05/25 09:57:14;;;;;;;8.63;6.97;;;17.70;99.90;;;;;;5112353;28;20202;-78
2023/05/25 09:59:44;;;;;;;12.60;6.80;;;18.10;99.90;;;;;;5112600;28;20234;-79
2023/05/25 10:02:12;;;;;;;10.67;7.00;;;18.40;99.90;;;;;;5099989;28;20215;-78
2023/05/25 10:04:40;;;;;;;6.73;5.80;;;18.90;99.90;;;;;;5107026;27;20301;-78
2023/05/25 10:07:11;;;;;;;9.40;6.70;;;19.20;99.90;;;;;;5124211;28;20201;-76
2023/05/25 10:09:41;;;;;;;11.63;6.80;;;19.10;99.90;;;;;;5112360;27;20202;-78
2023/05/25 10:12:10;;;;;;;9.90;7.00;;;19.30;99.90;;;;;;5099068;28;20621;-76
2023/05/25 10:14:38;;;;;;;12.53;7.23;;;18.90;99.90;;;;;;5091999;28;20682;-75
2023/05/25 10:17:10;;;;;;;9.87;7.23;;;19.30;99.90;;;;;;5099141;28;20194;-77
2023/05/25 10:19:42;;;;;;;10.03;6.47;;;19.10;99.90;;;;;;5121079;28;20274;-76
2023/05/25 10:22:16;;;;;;;10.93;7.27;;;19.20;99.90;;;;;;5116325;28;20260;-77
2023/05/25 10:24:51;;;;;;;10.33;6.43;;;19.00;99.90;;;;;;5120546;28;20285;-77
2023/05/25 10:27:24;;;;;;;9.27;6.90;;;19.60;99.90;;;;;;5121192;28;20298;-77
2023/05/25 10:29:56;;;;;;;10.27;7.40;;;19.80;99.90;;;;;;5117802;28;20600;-77
2023/05/25 10:32:25;;;;;;;10.77;7.03;;;19.90;99.90;;;;;;5122468;28;20204;-76
2023/05/25 10:34:55;;;;;;;10.50;6.70;;;20.40;99.90;;;;;;5121287;28;20541;-77
2023/05/25 10:37:27;;;;;;;8.20;6.30;;;21.30;99.90;;;;;;5119700;28;20214;-78
2023/05/25 10:39:57;;;;;;;10.27;6.53;;;21.40;99.90;;;;;;5119642;28;20267;-77
2023/05/25 10:42:26;;;;;;;10.97;6.17;;;21.80;99.90;;;;;;5119897;28;20636;-76
2023/05/25 10:44:55;;;;;;;9.50;6.53;;;22.20;99.90;;;;;;5124339;27;20205;-77
2023/05/25 10:47:25;;;;;;;11.20;6.80;;;23.20;98.40;;;;;;5124107;27;20210;-75
2023/05/25 10:49:56;;;;;;;8.93;6.67;;;23.50;97.60;;;;;;5125663;27;20289;-75
2023/05/25 10:52:29;;;;;;;12.47;7.67;;;22.60;97.10;;;;;;5126300;27;20582;-77
2023/05/25 10:55:00;;;;;;;12.70;6.77;;;21.90;98.80;;;;;;5121740;27;20248;-76
2023/05/25 10:57:29;;;;;;;11.30;6.30;;;21.80;99.90;;;;;;5116378;27;20681;-77
2023/05/25 11:00:04;;;;;;;10.10;7.00;;;21.90;99.90;;;;;;5115235;28;20691;-78
2023/05/25 11:02:50;;;;;;;9.57;7.10;;;21.60;99.60;;;;;;5115700;28;20301;-77
2023/05/25 11:05:36;;;;;;;10.57;7.17;;;21.30;99.90;;;;;;5095288;28;20207;-76
2023/05/25 11:08:08;;;;;;;14.07;8.13;;;20.70;99.90;;;;;;5102125;28;20229;-76
2023/05/25 11:10:51;;;;;;;9.57;7.30;;;20.50;99.90;;;;;;5114051;28;20243;-78
2023/05/25 11:13:39;;;;;;;10.23;7.50;;;20.60;99.90;;;;;;5115193;28;20206;-77
2023/05/25 11:16:23;;;;;;;13.00;7.10;;;20.80;99.90;;;;;;5115699;28;20186;-78
2023/05/25 11:18:56;;;;;;;11.83;7.43;;;21.10;99.90;;;;;;5114145;28;20441;-77
2023/05/25 11:21:43;;;;;;;9.83;7.30;;;21.50;99.90;;;;;;5115536;28;20593;-77
2023/05/25 11:24:14;;;;;;;10.17;7.07;;;22.20;99.90;;;;;;5115376;28;20290;-78
2023/05/25 11:26:57;;;;;;;11.73;6.93;;;22.10;99.90;;;;;;5094859;28;20237;-78
2023/05/25 11:29:30;;;;;;;12.80;8.03;;;22.20;99.90;;;;;;5094504;28;20257;-77
2023/05/25 11:31:59;;;;;;;10.93;7.30;;;21.60;99.90;;;;;;5094275;28;20202;-78
2023/05/25 11:34:28;;;;;;;11.60;8.00;;;21.40;99.90;;;;;;5094464;28;20221;-78
2023/05/25 11:37:00;;;;;;;10.30;7.70;;;21.10;99.90;;;;;;5094462;28;20246;-77
2023/05/25 11:39:30;;;;;;;12.83;7.57;;;21.20;99.90;;;;;;5096008;28;20240;-78
2023/05/25 11:42:03;;;;;;;13.90;7.93;;;21.80;99.90;;;;;;5114405;28;20267;-79
2023/05/25 11:44:33;;;;;;;10.87;7.70;;;21.30;99.90;;;;;;5115074;28;20570;-78
2023/05/25 11:47:04;;;;;;;10.90;7.13;;;20.50;99.90;;;;;;5104195;28;20237;-76
2023/05/25 11:49:32;;;;;;;11.73;7.20;;;21.00;99.90;;;;;;5094696;28;20555;-78
2023/05/25 11:52:05;;;;;;;13.27;8.07;;;21.80;99.90;;;;;;5094284;28;20210;-79
2023/05/25 11:54:35;;;;;;;11.80;7.50;;;21.30;99.90;;;;;;5094360;28;20202;-78
2023/05/25 11:57:04;;;;;;;10.40;7.80;;;21.20;99.90;;;;;;5101371;28;20275;-78
2023/05/25 11:59:32;;;;;;;11.10;8.10;;;21.60;99.90;;;;;;5111565;28;20241;-77
2023/05/25 12:02:02;;;;;;;13.50;7.53;;;21.80;99.90;;;;;;5104704;28;20226;-79
2023/05/25 12:04:32;;;;;;;12.90;8.37;;;21.50;99.90;;;;;;5106782;28;20211;-77
2023/05/25 12:07:02;;;;;;;9.60;6.87;;;21.40;99.90;;;;;;5101791;28;20241;-78
2023/05/25 12:09:30;;;;;;;10.97;6.80;;;21.90;99.90;;;;;;5097443;28;20675;-76
2023/05/25 12:12:01;;;;;;;10.87;7.00;;;22.40;99.90;;;;;;5099584;28;20263;-79
2023/05/25 12:14:29;;;;;;;12.43;7.00;;;22.40;99.90;;;;;;5108166;28;20210;-79
2023/05/25 12:16:58;;;;;;;11.30;6.67;;;22.70;99.90;;;;;;5112072;28;20206;-78
2023/05/25 12:19:26;;;;;;;9.63;6.17;;;23.00;98.60;;;;;;5095930;28;20244;-78
2023/05/25 12:21:55;;;;;;;9.23;5.17;;;23.10;99.50;;;;;;5104089;28;20706;-77
2023/05/25 12:24:23;;;;;;;8.97;6.47;;;23.60;99.90;;;;;;5116255;28;20221;-76
2023/05/25 12:26:56;;;;;;;10.40;6.67;;;22.60;98.30;;;;;;5100327;28;20226;-76
2023/05/25 12:29:25;;;;;;;12.33;6.30;;;22.80;99.90;;;;;;5094778;28;20225;-77
2023/05/25 12:32:01;;;;;;;10.67;7.07;;;22.80;99.30;;;;;;5113985;28;20220;-77
2023/05/25 12:34:29;;;;;;;10.57;7.00;;;22.90;98.30;;;;;;5094606;28;20221;-78
2023/05/25 12:36:57;;;;;;;8.50;6.27;;;22.50;98.40;;;;;;5113856;28;20247;-77
2023/05/25 12:39:37;;;;;;;9.47;7.30;;;22.20;99.90;;;;;;5113612;28;20752;-75
2023/05/25 12:42:12;;;;;;;9.77;6.53;;;22.00;98.40;;;;;;5110519;28;20276;-75
2023/05/25 12:44:42;;;;;;;12.87;6.37;;;22.20;99.90;;;;;;5092887;28;20213;-77
2023/05/25 12:47:11;;;;;;;9.60;6.77;;;22.50;99.90;;;;;;5098124;28;20225;-76
2023/05/25 12:49:41;;;;;;;10.90;6.87;;;22.20;99.90;;;;;;5093427;28;20293;-78
2023/05/25 12:52:10;;;;;;;11.23;7.00;;;22.50;99.70;;;;;;5092782;28;20207;-77